sensor_id;sensor_type;location;lat;lon;timestamp;P1;durP1;ratioP1;P2;durP2;ratioP2
11524;SDS011;5819;49.648;8.330;2022-10-17T00:02:14;10.18;;;4.00;;
11524;SDS011;5819;49.648;8.330;2022-10-17T00:04:43;6.15;;;4.15;;
11524;SDS011;5819;49.648;8.330;2022-10-17T00:07:11;7.60;;;5.00;;
11524;SDS011;5819;49.648;8.330;2022-10-17T00:09:40;7.05;;;4.95;;
11524;SDS011;5819;49.648;8.330;2022-10-17T00:12:09;8.82;;;4.40;;
11524;SDS011;5819;49.648;8.330;2022-10-17T00:14:37;10.10;;;4.97;;
11524;SDS011;5819;49.648;8.330;2022-10-17T00:17:04;5.40;;;4.13;;
11524;SDS011;5819;49.648;8.330;2022-10-17T00:19:32;9.05;;;4.90;;
11524;SDS011;5819;49.648;8.330;2022-10-17T00:22:01;11.93;;;5.15;;
11524;SDS011;5819;49.648;8.330;2022-10-17T00:24:29;11.18;;;5.25;;
11524;SDS011;5819;49.648;8.330;2022-10-17T00:26:57;8.13;;;4.82;;
11524;SDS011;5819;49.648;8.330;2022-10-17T00:29:24;8.45;;;5.47;;
11524;SDS011;5819;49.648;8.330;2022-10-17T00:31:53;7.95;;;5.90;;
11524;SDS011;5819;49.648;8.330;2022-10-17T00:34:21;8.95;;;5.78;;
11524;SDS011;5819;49.648;8.330;2022-10-17T00:36:50;11.65;;;6.75;;
11524;SDS011;5819;49.648;8.330;2022-10-17T00:39:19;6.55;;;5.50;;
11524;SDS011;5819;49.648;8.330;2022-10-17T00:41:47;8.77;;;5.75;;
11524;SDS011;5819;49.648;8.330;2022-10-17T00:47:20;9.55;;;5.57;;
11524;SDS011;5819;49.648;8.330;2022-10-17T00:49:48;10.45;;;5.97;;
11524;SDS011;5819;49.648;8.330;2022-10-17T00:52:18;9.52;;;5.57;;
11524;SDS011;5819;49.648;8.330;2022-10-17T00:54:50;9.75;;;5.70;;
11524;SDS011;5819;49.648;8.330;2022-10-17T00:57:22;7.22;;;5.07;;
11524;SDS011;5819;49.648;8.330;2022-10-17T00:59:51;13.57;;;5.35;;
11524;SDS011;5819;49.648;8.330;2022-10-17T01:02:23;10.80;;;5.78;;
11524;SDS011;5819;49.648;8.330;2022-10-17T01:04:51;10.55;;;5.53;;
11524;SDS011;5819;49.648;8.330;2022-10-17T01:07:21;8.75;;;5.10;;
11524;SDS011;5819;49.648;8.330;2022-10-17T01:09:50;8.23;;;5.25;;
11524;SDS011;5819;49.648;8.330;2022-10-17T01:12:19;10.07;;;5.57;;
11524;SDS011;5819;49.648;8.330;2022-10-17T01:15:00;8.50;;;5.00;;
11524;SDS011;5819;49.648;8.330;2022-10-17T01:17:38;9.00;;;4.97;;
11524;SDS011;5819;49.648;8.330;2022-10-17T01:20:22;9.88;;;4.80;;
11524;SDS011;5819;49.648;8.330;2022-10-17T01:23:25;6.60;;;4.88;;
11524;SDS011;5819;49.648;8.330;2022-10-17T01:26:07;8.55;;;5.40;;
11524;SDS011;5819;49.648;8.330;2022-10-17T01:28:50;11.82;;;5.20;;
11524;SDS011;5819;49.648;8.330;2022-10-17T01:31:34;11.35;;;5.45;;
11524;SDS011;5819;49.648;8.330;2022-10-17T01:34:06;5.97;;;4.50;;
11524;SDS011;5819;49.648;8.330;2022-10-17T01:36:38;6.50;;;4.53;;
11524;SDS011;5819;49.648;8.330;2022-10-17T01:39:14;7.50;;;5.22;;
11524;SDS011;5819;49.648;8.330;2022-10-17T01:41:48;9.48;;;5.13;;
11524;SDS011;5819;49.648;8.330;2022-10-17T01:44:22;8.07;;;4.53;;
11524;SDS011;5819;49.648;8.330;2022-10-17T01:47:00;8.05;;;4.95;;
11524;SDS011;5819;49.648;8.330;2022-10-17T01:49:32;11.50;;;5.50;;
11524;SDS011;5819;49.648;8.330;2022-10-17T01:52:02;9.65;;;5.40;;
11524;SDS011;5819;49.648;8.330;2022-10-17T01:54:34;8.73;;;4.65;;
11524;SDS011;5819;49.648;8.330;2022-10-17T01:57:10;11.32;;;5.38;;
11524;SDS011;5819;49.648;8.330;2022-10-17T01:59:50;6.97;;;4.90;;
11524;SDS011;5819;49.648;8.330;2022-10-17T02:02:21;6.93;;;5.40;;
11524;SDS011;5819;49.648;8.330;2022-10-17T02:04:50;9.85;;;5.15;;
11524;SDS011;5819;49.648;8.330;2022-10-17T02:07:20;9.35;;;5.72;;
11524;SDS011;5819;49.648;8.330;2022-10-17T02:09:48;8.40;;;5.55;;
11524;SDS011;5819;49.648;8.330;2022-10-17T02:12:23;11.02;;;5.70;;
11524;SDS011;5819;49.648;8.330;2022-10-17T02:15:15;10.23;;;5.50;;
11524;SDS011;5819;49.648;8.330;2022-10-17T02:17:59;6.88;;;4.75;;
11524;SDS011;5819;49.648;8.330;2022-10-17T02:20:44;7.68;;;5.53;;
11524;SDS011;5819;49.648;8.330;2022-10-17T02:23:18;12.57;;;5.70;;
11524;SDS011;5819;49.648;8.330;2022-10-17T02:25:53;12.52;;;6.13;;
11524;SDS011;5819;49.648;8.330;2022-10-17T02:28:30;8.35;;;5.63;;
11524;SDS011;5819;49.648;8.330;2022-10-17T02:31:06;7.93;;;5.47;;
11524;SDS011;5819;49.648;8.330;2022-10-17T02:33:44;6.63;;;5.65;;
11524;SDS011;5819;49.648;8.330;2022-10-17T02:36:18;10.07;;;5.63;;
11524;SDS011;5819;49.648;8.330;2022-10-17T02:38:48;6.85;;;6.00;;
11524;SDS011;5819;49.648;8.330;2022-10-17T02:41:19;18.08;;;6.38;;
11524;SDS011;5819;49.648;8.330;2022-10-17T02:43:50;8.07;;;5.60;;
11524;SDS011;5819;49.648;8.330;2022-10-17T02:46:25;10.05;;;5.72;;
11524;SDS011;5819;49.648;8.330;2022-10-17T02:48:57;16.08;;;6.28;;
11524;SDS011;5819;49.648;8.330;2022-10-17T02:51:29;6.82;;;6.13;;
11524;SDS011;5819;49.648;8.330;2022-10-17T02:54:04;10.65;;;6.13;;
11524;SDS011;5819;49.648;8.330;2022-10-17T02:56:38;9.18;;;6.70;;
11524;SDS011;5819;49.648;8.330;2022-10-17T02:59:09;12.10;;;6.55;;
11524;SDS011;5819;49.648;8.330;2022-10-17T03:01:41;9.18;;;6.63;;
11524;SDS011;5819;49.648;8.330;2022-10-17T03:04:12;9.93;;;6.82;;
11524;SDS011;5819;49.648;8.330;2022-10-17T03:06:41;10.73;;;7.13;;
11524;SDS011;5819;49.648;8.330;2022-10-17T03:09:09;8.65;;;6.78;;
11524;SDS011;5819;49.648;8.330;2022-10-17T03:11:37;9.18;;;6.95;;
11524;SDS011;5819;49.648;8.330;2022-10-17T03:14:06;12.48;;;7.18;;
11524;SDS011;5819;49.648;8.330;2022-10-17T03:16:35;10.20;;;6.88;;
11524;SDS011;5819;49.648;8.330;2022-10-17T03:19:03;8.55;;;7.55;;
11524;SDS011;5819;49.648;8.330;2022-10-17T03:21:33;11.32;;;7.18;;
11524;SDS011;5819;49.648;8.330;2022-10-17T03:24:04;10.00;;;7.22;;
11524;SDS011;5819;49.648;8.330;2022-10-17T03:26:32;8.95;;;6.93;;
11524;SDS011;5819;49.648;8.330;2022-10-17T03:29:01;7.00;;;6.30;;
11524;SDS011;5819;49.648;8.330;2022-10-17T03:31:31;7.68;;;6.13;;
11524;SDS011;5819;49.648;8.330;2022-10-17T03:34:00;15.18;;;7.03;;
11524;SDS011;5819;49.648;8.330;2022-10-17T03:36:28;15.80;;;7.38;;
11524;SDS011;5819;49.648;8.330;2022-10-17T03:38:57;7.97;;;6.28;;
11524;SDS011;5819;49.648;8.330;2022-10-17T03:41:26;8.07;;;6.70;;
11524;SDS011;5819;49.648;8.330;2022-10-17T03:43:53;9.18;;;6.72;;
11524;SDS011;5819;49.648;8.330;2022-10-17T03:46:23;8.95;;;7.05;;
11524;SDS011;5819;49.648;8.330;2022-10-17T03:48:53;10.48;;;6.88;;
11524;SDS011;5819;49.648;8.330;2022-10-17T03:51:20;9.50;;;7.32;;
11524;SDS011;5819;49.648;8.330;2022-10-17T03:53:52;10.15;;;6.15;;
11524;SDS011;5819;49.648;8.330;2022-10-17T03:56:22;8.80;;;6.63;;
11524;SDS011;5819;49.648;8.330;2022-10-17T03:59:03;8.00;;;6.40;;
11524;SDS011;5819;49.648;8.330;2022-10-17T04:01:33;6.93;;;6.05;;
11524;SDS011;5819;49.648;8.330;2022-10-17T04:04:01;11.38;;;6.30;;
11524;SDS011;5819;49.648;8.330;2022-10-17T04:06:32;7.90;;;6.20;;
11524;SDS011;5819;49.648;8.330;2022-10-17T04:09:00;11.10;;;6.13;;
11524;SDS011;5819;49.648;8.330;2022-10-17T04:11:40;11.95;;;8.20;;
11524;SDS011;5819;49.648;8.330;2022-10-17T04:14:08;23.25;;;9.10;;
11524;SDS011;5819;49.648;8.330;2022-10-17T04:16:37;8.35;;;7.22;;
11524;SDS011;5819;49.648;8.330;2022-10-17T04:19:11;7.95;;;6.65;;
11524;SDS011;5819;49.648;8.330;2022-10-17T04:21:43;9.77;;;6.53;;
11524;SDS011;5819;49.648;8.330;2022-10-17T04:24:13;9.88;;;6.47;;
11524;SDS011;5819;49.648;8.330;2022-10-17T04:26:49;11.93;;;6.78;;
11524;SDS011;5819;49.648;8.330;2022-10-17T04:29:20;12.50;;;6.65;;
11524;SDS011;5819;49.648;8.330;2022-10-17T04:31:50;11.10;;;6.65;;
11524;SDS011;5819;49.648;8.330;2022-10-17T04:34:24;12.10;;;7.20;;
11524;SDS011;5819;49.648;8.330;2022-10-17T04:36:52;6.90;;;6.20;;
11524;SDS011;5819;49.648;8.330;2022-10-17T04:39:20;8.13;;;6.40;;
11524;SDS011;5819;49.648;8.330;2022-10-17T04:41:49;8.40;;;6.78;;
11524;SDS011;5819;49.648;8.330;2022-10-17T04:44:17;9.88;;;6.47;;
11524;SDS011;5819;49.648;8.330;2022-10-17T04:46:49;11.00;;;6.50;;
11524;SDS011;5819;49.648;8.330;2022-10-17T04:49:18;9.57;;;6.25;;
11524;SDS011;5819;49.648;8.330;2022-10-17T04:51:50;9.52;;;6.43;;
11524;SDS011;5819;49.648;8.330;2022-10-17T04:54:24;8.85;;;6.28;;
11524;SDS011;5819;49.648;8.330;2022-10-17T04:57:01;7.28;;;6.22;;
11524;SDS011;5819;49.648;8.330;2022-10-17T04:59:29;10.40;;;6.20;;
11524;SDS011;5819;49.648;8.330;2022-10-17T05:02:13;10.27;;;6.63;;
11524;SDS011;5819;49.648;8.330;2022-10-17T05:04:41;7.18;;;6.47;;
11524;SDS011;5819;49.648;8.330;2022-10-17T05:07:10;9.10;;;6.18;;
11524;SDS011;5819;49.648;8.330;2022-10-17T05:09:38;9.88;;;6.20;;
11524;SDS011;5819;49.648;8.330;2022-10-17T05:12:07;8.82;;;6.63;;
11524;SDS011;5819;49.648;8.330;2022-10-17T05:14:38;7.75;;;6.32;;
11524;SDS011;5819;49.648;8.330;2022-10-17T05:17:06;7.15;;;6.45;;
11524;SDS011;5819;49.648;8.330;2022-10-17T05:19:34;8.10;;;6.43;;
11524;SDS011;5819;49.648;8.330;2022-10-17T05:22:03;7.32;;;5.90;;
11524;SDS011;5819;49.648;8.330;2022-10-17T05:24:30;8.95;;;6.10;;
11524;SDS011;5819;49.648;8.330;2022-10-17T05:26:58;10.65;;;5.93;;
11524;SDS011;5819;49.648;8.330;2022-10-17T05:29:27;8.63;;;6.47;;
11524;SDS011;5819;49.648;8.330;2022-10-17T05:32:03;6.30;;;5.65;;
11524;SDS011;5819;49.648;8.330;2022-10-17T05:34:32;11.30;;;6.05;;
11524;SDS011;5819;49.648;8.330;2022-10-17T05:37:00;10.88;;;5.88;;
11524;SDS011;5819;49.648;8.330;2022-10-17T05:39:29;7.90;;;5.93;;
11524;SDS011;5819;49.648;8.330;2022-10-17T05:41:57;7.32;;;6.47;;
11524;SDS011;5819;49.648;8.330;2022-10-17T05:44:27;5.85;;;5.05;;
11524;SDS011;5819;49.648;8.330;2022-10-17T05:46:58;9.90;;;5.38;;
11524;SDS011;5819;49.648;8.330;2022-10-17T05:49:27;5.97;;;5.43;;
11524;SDS011;5819;49.648;8.330;2022-10-17T05:52:14;9.30;;;5.57;;
11524;SDS011;5819;49.648;8.330;2022-10-17T05:54:54;8.38;;;5.25;;
11524;SDS011;5819;49.648;8.330;2022-10-17T05:57:23;6.60;;;5.20;;
11524;SDS011;5819;49.648;8.330;2022-10-17T05:59:52;6.82;;;5.50;;
11524;SDS011;5819;49.648;8.330;2022-10-17T06:02:20;11.95;;;5.25;;
11524;SDS011;5819;49.648;8.330;2022-10-17T06:04:48;8.25;;;5.07;;
11524;SDS011;5819;49.648;8.330;2022-10-17T06:07:19;7.35;;;5.05;;
11524;SDS011;5819;49.648;8.330;2022-10-17T06:09:47;8.63;;;4.88;;
11524;SDS011;5819;49.648;8.330;2022-10-17T06:12:15;6.82;;;5.32;;
11524;SDS011;5819;49.648;8.330;2022-10-17T06:14:44;9.18;;;5.32;;
11524;SDS011;5819;49.648;8.330;2022-10-17T06:17:14;8.68;;;5.10;;
11524;SDS011;5819;49.648;8.330;2022-10-17T06:19:43;13.68;;;5.10;;
11524;SDS011;5819;49.648;8.330;2022-10-17T06:22:13;11.32;;;6.10;;
11524;SDS011;5819;49.648;8.330;2022-10-17T06:24:41;9.30;;;5.95;;
11524;SDS011;5819;49.648;8.330;2022-10-17T06:27:10;9.10;;;5.82;;
11524;SDS011;5819;49.648;8.330;2022-10-17T06:29:39;7.80;;;5.32;;
11524;SDS011;5819;49.648;8.330;2022-10-17T06:32:08;7.43;;;6.00;;
11524;SDS011;5819;49.648;8.330;2022-10-17T06:34:44;9.77;;;5.50;;
11524;SDS011;5819;49.648;8.330;2022-10-17T06:37:13;9.18;;;5.13;;
11524;SDS011;5819;49.648;8.330;2022-10-17T06:39:42;9.65;;;5.88;;
11524;SDS011;5819;49.648;8.330;2022-10-17T06:42:11;6.55;;;5.57;;
11524;SDS011;5819;49.648;8.330;2022-10-17T06:44:46;7.38;;;5.90;;
11524;SDS011;5819;49.648;8.330;2022-10-17T06:47:42;6.85;;;5.50;;
11524;SDS011;5819;49.648;8.330;2022-10-17T06:50:28;8.73;;;5.45;;
11524;SDS011;5819;49.648;8.330;2022-10-17T06:53:05;10.70;;;5.75;;
11524;SDS011;5819;49.648;8.330;2022-10-17T06:56:02;11.85;;;6.05;;
11524;SDS011;5819;49.648;8.330;2022-10-17T06:59:09;8.40;;;5.15;;
11524;SDS011;5819;49.648;8.330;2022-10-17T07:01:46;6.90;;;5.38;;
11524;SDS011;5819;49.648;8.330;2022-10-17T07:04:14;8.75;;;5.47;;
11524;SDS011;5819;49.648;8.330;2022-10-17T07:06:43;6.40;;;5.45;;
11524;SDS011;5819;49.648;8.330;2022-10-17T07:09:16;9.32;;;5.32;;
11524;SDS011;5819;49.648;8.330;2022-10-17T07:11:44;11.43;;;5.38;;
11524;SDS011;5819;49.648;8.330;2022-10-17T07:14:15;11.63;;;5.50;;
11524;SDS011;5819;49.648;8.330;2022-10-17T07:16:44;8.48;;;5.70;;
11524;SDS011;5819;49.648;8.330;2022-10-17T07:19:21;6.10;;;5.03;;
11524;SDS011;5819;49.648;8.330;2022-10-17T07:21:50;7.30;;;4.93;;
11524;SDS011;5819;49.648;8.330;2022-10-17T07:24:19;9.48;;;5.07;;
11524;SDS011;5819;49.648;8.330;2022-10-17T07:26:52;12.00;;;5.20;;
11524;SDS011;5819;49.648;8.330;2022-10-17T07:29:20;6.20;;;4.90;;
11524;SDS011;5819;49.648;8.330;2022-10-17T07:31:56;6.53;;;4.78;;
11524;SDS011;5819;49.648;8.330;2022-10-17T07:34:24;7.18;;;4.70;;
11524;SDS011;5819;49.648;8.330;2022-10-17T07:36:57;8.45;;;5.18;;
11524;SDS011;5819;49.648;8.330;2022-10-17T07:39:25;7.65;;;4.70;;
11524;SDS011;5819;49.648;8.330;2022-10-17T07:41:53;7.88;;;4.63;;
11524;SDS011;5819;49.648;8.330;2022-10-17T07:44:22;5.40;;;4.82;;
11524;SDS011;5819;49.648;8.330;2022-10-17T07:46:51;6.82;;;4.63;;
11524;SDS011;5819;49.648;8.330;2022-10-17T07:49:19;7.13;;;5.00;;
11524;SDS011;5819;49.648;8.330;2022-10-17T07:51:46;9.02;;;5.45;;
11524;SDS011;5819;49.648;8.330;2022-10-17T07:54:16;7.10;;;4.95;;
11524;SDS011;5819;49.648;8.330;2022-10-17T07:56:44;9.90;;;4.80;;
11524;SDS011;5819;49.648;8.330;2022-10-17T07:59:16;7.88;;;5.20;;
11524;SDS011;5819;49.648;8.330;2022-10-17T08:01:44;5.10;;;4.50;;
11524;SDS011;5819;49.648;8.330;2022-10-17T08:04:12;15.80;;;4.50;;
11524;SDS011;5819;49.648;8.330;2022-10-17T08:06:41;9.80;;;4.95;;
11524;SDS011;5819;49.648;8.330;2022-10-17T08:09:09;5.85;;;4.15;;
11524;SDS011;5819;49.648;8.330;2022-10-17T08:11:38;10.80;;;5.13;;
11524;SDS011;5819;49.648;8.330;2022-10-17T08:14:09;8.02;;;5.10;;
11524;SDS011;5819;49.648;8.330;2022-10-17T08:16:36;7.88;;;4.82;;
11524;SDS011;5819;49.648;8.330;2022-10-17T08:19:04;8.52;;;4.95;;
11524;SDS011;5819;49.648;8.330;2022-10-17T08:21:39;8.02;;;4.55;;
11524;SDS011;5819;49.648;8.330;2022-10-17T08:24:06;7.97;;;5.18;;
11524;SDS011;5819;49.648;8.330;2022-10-17T08:26:34;9.48;;;4.60;;
11524;SDS011;5819;49.648;8.330;2022-10-17T08:29:12;9.50;;;4.82;;
11524;SDS011;5819;49.648;8.330;2022-10-17T08:31:40;6.50;;;4.50;;
11524;SDS011;5819;49.648;8.330;2022-10-17T08:34:13;7.60;;;5.22;;
11524;SDS011;5819;49.648;8.330;2022-10-17T08:36:42;8.77;;;4.57;;
11524;SDS011;5819;49.648;8.330;2022-10-17T08:39:09;6.32;;;4.13;;
11524;SDS011;5819;49.648;8.330;2022-10-17T08:41:42;8.32;;;4.80;;
11524;SDS011;5819;49.648;8.330;2022-10-17T08:44:24;8.00;;;4.63;;
11524;SDS011;5819;49.648;8.330;2022-10-17T08:47:03;6.30;;;4.70;;
11524;SDS011;5819;49.648;8.330;2022-10-17T08:49:37;6.70;;;4.60;;
11524;SDS011;5819;49.648;8.330;2022-10-17T08:52:14;9.63;;;4.72;;
11524;SDS011;5819;49.648;8.330;2022-10-17T08:54:46;5.22;;;4.53;;
11524;SDS011;5819;49.648;8.330;2022-10-17T08:57:15;5.97;;;4.20;;
11524;SDS011;5819;49.648;8.330;2022-10-17T08:59:48;8.98;;;4.25;;
11524;SDS011;5819;49.648;8.330;2022-10-17T09:02:21;9.85;;;4.75;;
11524;SDS011;5819;49.648;8.330;2022-10-17T09:05:14;7.30;;;4.43;;
11524;SDS011;5819;49.648;8.330;2022-10-17T09:08:06;8.73;;;4.55;;
11524;SDS011;5819;49.648;8.330;2022-10-17T09:10:44;9.10;;;4.60;;
11524;SDS011;5819;49.648;8.330;2022-10-17T09:13:22;11.45;;;4.47;;
11524;SDS011;5819;49.648;8.330;2022-10-17T09:16:06;4.90;;;4.38;;
11524;SDS011;5819;49.648;8.330;2022-10-17T09:18:46;13.07;;;5.43;;
11524;SDS011;5819;49.648;8.330;2022-10-17T09:21:26;9.65;;;5.75;;
11524;SDS011;5819;49.648;8.330;2022-10-17T09:24:04;7.80;;;4.53;;
11524;SDS011;5819;49.648;8.330;2022-10-17T09:26:41;8.82;;;4.32;;
11524;SDS011;5819;49.648;8.330;2022-10-17T09:29:14;7.60;;;4.50;;
11524;SDS011;5819;49.648;8.330;2022-10-17T09:31:48;8.02;;;4.72;;
11524;SDS011;5819;49.648;8.330;2022-10-17T09:34:25;7.13;;;4.25;;
11524;SDS011;5819;49.648;8.330;2022-10-17T09:36:54;4.55;;;4.00;;
11524;SDS011;5819;49.648;8.330;2022-10-17T09:39:25;8.18;;;4.57;;
11524;SDS011;5819;49.648;8.330;2022-10-17T09:41:57;7.50;;;4.70;;
11524;SDS011;5819;49.648;8.330;2022-10-17T09:44:28;6.45;;;4.53;;
11524;SDS011;5819;49.648;8.330;2022-10-17T09:47:05;6.05;;;4.38;;
11524;SDS011;5819;49.648;8.330;2022-10-17T09:49:52;9.82;;;4.90;;
11524;SDS011;5819;49.648;8.330;2022-10-17T09:52:20;8.13;;;4.72;;
11524;SDS011;5819;49.648;8.330;2022-10-17T09:54:55;11.38;;;4.72;;
11524;SDS011;5819;49.648;8.330;2022-10-17T09:57:26;8.77;;;4.55;;
11524;SDS011;5819;49.648;8.330;2022-10-17T09:59:57;8.77;;;4.53;;
11524;SDS011;5819;49.648;8.330;2022-10-17T10:02:29;9.02;;;4.35;;
11524;SDS011;5819;49.648;8.330;2022-10-17T10:05:00;8.60;;;4.68;;
11524;SDS011;5819;49.648;8.330;2022-10-17T10:07:32;4.82;;;4.25;;
11524;SDS011;5819;49.648;8.330;2022-10-17T10:10:03;7.88;;;4.88;;
11524;SDS011;5819;49.648;8.330;2022-10-17T10:12:35;10.45;;;4.45;;
11524;SDS011;5819;49.648;8.330;2022-10-17T10:15:28;5.68;;;4.35;;
11524;SDS011;5819;49.648;8.330;2022-10-17T10:18:00;12.20;;;5.22;;
11524;SDS011;5819;49.648;8.330;2022-10-17T10:20:30;8.15;;;4.20;;
11524;SDS011;5819;49.648;8.330;2022-10-17T10:23:08;7.88;;;4.07;;
11524;SDS011;5819;49.648;8.330;2022-10-17T10:25:48;10.50;;;4.72;;
11524;SDS011;5819;49.648;8.330;2022-10-17T10:28:20;8.27;;;3.95;;
11524;SDS011;5819;49.648;8.330;2022-10-17T10:30:51;6.53;;;4.05;;
11524;SDS011;5819;49.648;8.330;2022-10-17T10:33:22;11.90;;;4.55;;
11524;SDS011;5819;49.648;8.330;2022-10-17T10:35:54;6.35;;;4.15;;
11524;SDS011;5819;49.648;8.330;2022-10-17T10:38:23;8.48;;;4.35;;
11524;SDS011;5819;49.648;8.330;2022-10-17T10:40:52;8.60;;;4.20;;
11524;SDS011;5819;49.648;8.330;2022-10-17T10:43:31;7.88;;;4.20;;
11524;SDS011;5819;49.648;8.330;2022-10-17T10:46:01;6.55;;;4.45;;
11524;SDS011;5819;49.648;8.330;2022-10-17T10:48:34;5.50;;;4.22;;
11524;SDS011;5819;49.648;8.330;2022-10-17T10:51:03;6.05;;;4.70;;
11524;SDS011;5819;49.648;8.330;2022-10-17T10:53:37;5.93;;;5.10;;
11524;SDS011;5819;49.648;8.330;2022-10-17T10:56:12;5.82;;;4.15;;
11524;SDS011;5819;49.648;8.330;2022-10-17T10:58:48;6.95;;;4.38;;
11524;SDS011;5819;49.648;8.330;2022-10-17T11:01:23;10.23;;;4.55;;
11524;SDS011;5819;49.648;8.330;2022-10-17T11:03:59;6.07;;;4.28;;
11524;SDS011;5819;49.648;8.330;2022-10-17T11:06:35;5.53;;;4.60;;
11524;SDS011;5819;49.648;8.330;2022-10-17T11:09:10;6.97;;;4.05;;
11524;SDS011;5819;49.648;8.330;2022-10-17T11:11:47;6.50;;;4.13;;
11524;SDS011;5819;49.648;8.330;2022-10-17T11:14:31;7.25;;;3.83;;
11524;SDS011;5819;49.648;8.330;2022-10-17T11:17:06;9.20;;;4.10;;
11524;SDS011;5819;49.648;8.330;2022-10-17T11:19:46;6.82;;;4.20;;
11524;SDS011;5819;49.648;8.330;2022-10-17T11:22:20;9.32;;;4.53;;
11524;SDS011;5819;49.648;8.330;2022-10-17T11:24:55;6.80;;;3.60;;
11524;SDS011;5819;49.648;8.330;2022-10-17T11:27:26;5.53;;;3.67;;
11524;SDS011;5819;49.648;8.330;2022-10-17T11:29:56;7.47;;;3.92;;
11524;SDS011;5819;49.648;8.330;2022-10-17T11:32:25;6.28;;;3.83;;
11524;SDS011;5819;49.648;8.330;2022-10-17T11:35:00;7.15;;;4.40;;
11524;SDS011;5819;49.648;8.330;2022-10-17T11:37:32;6.57;;;3.65;;
11524;SDS011;5819;49.648;8.330;2022-10-17T11:40:08;9.02;;;3.50;;
11524;SDS011;5819;49.648;8.330;2022-10-17T11:42:49;6.03;;;3.92;;
11524;SDS011;5819;49.648;8.330;2022-10-17T11:45:20;6.85;;;3.53;;
11524;SDS011;5819;49.648;8.330;2022-10-17T11:47:52;4.93;;;3.35;;
11524;SDS011;5819;49.648;8.330;2022-10-17T11:50:26;8.93;;;3.65;;
11524;SDS011;5819;49.648;8.330;2022-10-17T11:53:18;6.55;;;3.33;;
11524;SDS011;5819;49.648;8.330;2022-10-17T11:55:48;4.65;;;3.20;;
11524;SDS011;5819;49.648;8.330;2022-10-17T11:58:24;5.75;;;3.05;;
11524;SDS011;5819;49.648;8.330;2022-10-17T12:01:00;6.57;;;3.65;;
11524;SDS011;5819;49.648;8.330;2022-10-17T12:03:57;4.15;;;3.05;;
11524;SDS011;5819;49.648;8.330;2022-10-17T12:06:38;6.88;;;3.10;;
11524;SDS011;5819;49.648;8.330;2022-10-17T12:09:19;6.22;;;3.25;;
11524;SDS011;5819;49.648;8.330;2022-10-17T12:11:52;5.80;;;2.70;;
11524;SDS011;5819;49.648;8.330;2022-10-17T12:14:35;7.28;;;3.20;;
11524;SDS011;5819;49.648;8.330;2022-10-17T12:17:21;3.90;;;2.83;;
11524;SDS011;5819;49.648;8.330;2022-10-17T12:23:20;3.85;;;3.03;;
11524;SDS011;5819;49.648;8.330;2022-10-17T12:25:54;4.03;;;2.95;;
11524;SDS011;5819;49.648;8.330;2022-10-17T12:28:29;4.38;;;3.28;;
11524;SDS011;5819;49.648;8.330;2022-10-17T12:30:59;5.35;;;3.13;;
11524;SDS011;5819;49.648;8.330;2022-10-17T12:33:32;7.45;;;2.92;;
11524;SDS011;5819;49.648;8.330;2022-10-17T12:42:28;7.78;;;3.03;;
11524;SDS011;5819;49.648;8.330;2022-10-17T12:48:11;4.60;;;3.00;;
11524;SDS011;5819;49.648;8.330;2022-10-17T12:53:51;6.05;;;3.08;;
11524;SDS011;5819;49.648;8.330;2022-10-17T12:56:30;3.13;;;2.80;;
11524;SDS011;5819;49.648;8.330;2022-10-17T12:59:05;5.95;;;2.58;;
11524;SDS011;5819;49.648;8.330;2022-10-17T13:01:36;3.67;;;2.55;;
11524;SDS011;5819;49.648;8.330;2022-10-17T13:04:07;5.80;;;2.80;;
11524;SDS011;5819;49.648;8.330;2022-10-17T13:06:38;7.28;;;2.83;;
11524;SDS011;5819;49.648;8.330;2022-10-17T13:09:16;10.43;;;2.92;;
11524;SDS011;5819;49.648;8.330;2022-10-17T13:11:50;4.90;;;2.75;;
11524;SDS011;5819;49.648;8.330;2022-10-17T13:14:19;8.65;;;2.60;;
11524;SDS011;5819;49.648;8.330;2022-10-17T13:16:53;4.75;;;3.28;;
11524;SDS011;5819;49.648;8.330;2022-10-17T13:19:22;5.15;;;2.67;;
11524;SDS011;5819;49.648;8.330;2022-10-17T13:21:52;4.13;;;2.47;;
11524;SDS011;5819;49.648;8.330;2022-10-17T13:24:28;7.75;;;2.97;;
11524;SDS011;5819;49.648;8.330;2022-10-17T13:26:59;6.68;;;2.80;;
11524;SDS011;5819;49.648;8.330;2022-10-17T13:29:27;10.48;;;3.08;;
11524;SDS011;5819;49.648;8.330;2022-10-17T13:31:57;7.40;;;2.55;;
11524;SDS011;5819;49.648;8.330;2022-10-17T13:34:27;5.75;;;3.00;;
11524;SDS011;5819;49.648;8.330;2022-10-17T13:36:56;4.78;;;3.20;;
11524;SDS011;5819;49.648;8.330;2022-10-17T13:39:26;5.25;;;2.72;;
11524;SDS011;5819;49.648;8.330;2022-10-17T13:42:20;8.43;;;3.55;;
11524;SDS011;5819;49.648;8.330;2022-10-17T13:44:50;6.40;;;2.90;;
11524;SDS011;5819;49.648;8.330;2022-10-17T13:47:21;4.97;;;3.20;;
11524;SDS011;5819;49.648;8.330;2022-10-17T13:49:51;3.60;;;2.88;;
11524;SDS011;5819;49.648;8.330;2022-10-17T13:52:21;6.20;;;3.35;;
11524;SDS011;5819;49.648;8.330;2022-10-17T13:54:51;4.88;;;3.15;;
11524;SDS011;5819;49.648;8.330;2022-10-17T13:57:22;6.68;;;3.08;;
11524;SDS011;5819;49.648;8.330;2022-10-17T13:59:52;6.50;;;2.85;;
11524;SDS011;5819;49.648;8.330;2022-10-17T14:02:24;5.78;;;3.20;;
11524;SDS011;5819;49.648;8.330;2022-10-17T14:05:00;6.20;;;3.03;;
11524;SDS011;5819;49.648;8.330;2022-10-17T14:07:45;4.10;;;3.08;;
11524;SDS011;5819;49.648;8.330;2022-10-17T14:10:37;5.22;;;3.35;;
11524;SDS011;5819;49.648;8.330;2022-10-17T14:13:16;6.70;;;2.63;;
11524;SDS011;5819;49.648;8.330;2022-10-17T14:15:47;5.28;;;2.88;;
11524;SDS011;5819;49.648;8.330;2022-10-17T14:18:16;5.35;;;3.15;;
11524;SDS011;5819;49.648;8.330;2022-10-17T14:20:47;7.40;;;3.38;;
11524;SDS011;5819;49.648;8.330;2022-10-17T14:23:40;4.82;;;2.80;;
11524;SDS011;5819;49.648;8.330;2022-10-17T14:26:11;6.95;;;3.15;;
11524;SDS011;5819;49.648;8.330;2022-10-17T14:28:42;7.85;;;3.10;;
11524;SDS011;5819;49.648;8.330;2022-10-17T14:31:16;6.22;;;3.65;;
11524;SDS011;5819;49.648;8.330;2022-10-17T14:33:47;5.38;;;3.13;;
11524;SDS011;5819;49.648;8.330;2022-10-17T14:36:16;4.60;;;3.22;;
11524;SDS011;5819;49.648;8.330;2022-10-17T14:38:45;7.15;;;3.53;;
11524;SDS011;5819;49.648;8.330;2022-10-17T14:41:18;8.23;;;3.40;;
11524;SDS011;5819;49.648;8.330;2022-10-17T14:44:14;7.28;;;3.10;;
11524;SDS011;5819;49.648;8.330;2022-10-17T14:46:46;5.03;;;3.30;;
11524;SDS011;5819;49.648;8.330;2022-10-17T14:49:18;4.95;;;3.38;;
11524;SDS011;5819;49.648;8.330;2022-10-17T14:52:21;8.95;;;3.53;;
11524;SDS011;5819;49.648;8.330;2022-10-17T14:54:52;8.52;;;3.55;;
11524;SDS011;5819;49.648;8.330;2022-10-17T14:57:25;7.03;;;3.40;;
11524;SDS011;5819;49.648;8.330;2022-10-17T14:59:56;5.80;;;3.42;;
11524;SDS011;5819;49.648;8.330;2022-10-17T15:02:25;8.80;;;3.78;;
11524;SDS011;5819;49.648;8.330;2022-10-17T15:04:56;5.57;;;3.42;;
11524;SDS011;5819;49.648;8.330;2022-10-17T15:07:24;9.52;;;3.75;;
11524;SDS011;5819;49.648;8.330;2022-10-17T15:09:52;5.93;;;3.50;;
11524;SDS011;5819;49.648;8.330;2022-10-17T15:12:20;6.65;;;3.40;;
11524;SDS011;5819;49.648;8.330;2022-10-17T15:14:49;5.72;;;3.65;;
11524;SDS011;5819;49.648;8.330;2022-10-17T15:17:20;8.13;;;4.05;;
11524;SDS011;5819;49.648;8.330;2022-10-17T15:19:50;5.22;;;3.72;;
11524;SDS011;5819;49.648;8.330;2022-10-17T15:22:18;7.57;;;3.90;;
11524;SDS011;5819;49.648;8.330;2022-10-17T15:24:46;6.47;;;3.85;;
11524;SDS011;5819;49.648;8.330;2022-10-17T15:27:14;6.28;;;3.60;;
11524;SDS011;5819;49.648;8.330;2022-10-17T15:29:43;6.78;;;3.80;;
11524;SDS011;5819;49.648;8.330;2022-10-17T15:32:11;6.22;;;3.60;;
11524;SDS011;5819;49.648;8.330;2022-10-17T15:34:41;6.03;;;3.40;;
11524;SDS011;5819;49.648;8.330;2022-10-17T15:37:13;7.10;;;4.15;;
11524;SDS011;5819;49.648;8.330;2022-10-17T15:39:44;7.65;;;3.72;;
11524;SDS011;5819;49.648;8.330;2022-10-17T15:42:18;7.15;;;3.88;;
11524;SDS011;5819;49.648;8.330;2022-10-17T15:44:46;5.05;;;3.10;;
11524;SDS011;5819;49.648;8.330;2022-10-17T15:47:18;5.63;;;3.50;;
11524;SDS011;5819;49.648;8.330;2022-10-17T15:49:51;4.40;;;3.00;;
11524;SDS011;5819;49.648;8.330;2022-10-17T15:52:20;5.43;;;3.28;;